BENVENUTI AL 154° GRUPPO VIRTUALE
Monday, 26 October 2020 10:51

80° Anniversario della nascita del 154° Gruppo

Written by
Rate this item
(0 votes)
Il 25 Ottobre del 1940 nasceva, sull'aeroporto albanese di Berat, il 154° Gruppo Caccia equipaggiato con Fiat G.50 Freccia. Le eroiche imprese dei suoi equipaggi durante l'ultimo conflitto mondiale, sono ben rappresentate dalla bandiera del gruppo decorata con la Medaglia d'Argento al Valor Militare; che lo erge unico gruppo ad essere decorato al valor militare.   Oggi 25 Ottobre 2020, il 154° Gruppo Virtuale vuole ricordare l'80° Anniversario del 154° gruppo che tanto stima ed ammira.    
Read 408 times Last modified on Monday, 26 October 2020 08:58

Leave a comment

Make sure you enter all the required information, indicated by an asterisk (*). HTML code is not allowed.

METAR & TAF

[Source: ADDS]
METAR
LIPL 042055Z 18003KT 9999 BKN050 23/21 Q1014 RMK BKN VIS MIN 9999 WIND THR31 20004KT WIND THR13 21003KT BLU =
LIPL 042000Z 0421/0506 29008KT 9999 FEW025 SCT040 TEMPO 0503/0506 4000 BR
TAF
LIPL 042000Z 0421/0506 29008KT 9999 FEW025 SCT040 TEMPO 0503/0506 4000 BR =

Notice: Undefined index: sun in /web/htdocs/www.154gruppovirtuale.it/home/modules/mod_wx/tmpl/default.php on line 13

Official Tools

CombatFlite Logo  
 
   

Network

Simulation Platform